Time;durP1;ratioP1;P1;durP2;ratioP2;P2;SDS_P1;SDS_P2;PMS_P1;PMS_P2;Temp;Humidity;BMP_temperature;BMP_pressure;BME280_temperature;BME280_humidity;BME280_pressure;Samples;Min_cycle;Max_cycle;Signal;HPM_P1;HPM_P2
2023/01/10 00:01:51;;;;;;;84.57;29.23;;;;;;;3.31;94.35;96031.22;5049791;28;20091;-60
2023/01/10 00:04:18;;;;;;;89.18;27.58;;;;;;;3.35;94.23;96026.88;5049633;28;20094;-63
2023/01/10 00:06:45;;;;;;;85.13;27.90;;;;;;;3.43;94.49;96027.56;5053108;28;20049;-61
2023/01/10 00:09:12;;;;;;;74.07;26.50;;;;;;;3.46;94.14;96030.09;5053282;28;20550;-62
2023/01/10 00:14:23;;;;;;;74.93;25.95;;;;;;;3.63;93.30;96018.59;5032273;28;20439;-66
2023/01/10 00:16:51;;;;;;;70.72;26.50;;;;;;;3.70;92.99;96017.59;5053109;28;20049;-68
2023/01/10 00:19:18;;;;;;;70.07;24.15;;;;;;;3.69;92.51;96020.22;5053095;28;20095;-63
2023/01/10 00:21:45;;;;;;;72.57;25.20;;;;;;;3.73;92.57;96017.53;5053055;28;20109;-67
2023/01/10 00:24:18;;;;;;;69.95;26.20;;;;;;;3.75;92.47;96015.78;5053023;28;20049;-64
2023/01/10 00:26:49;;;;;;;74.22;25.27;;;;;;;3.84;92.56;96001.81;5053097;28;20126;-65
2023/01/10 00:29:18;;;;;;;65.32;24.77;;;;;;;3.90;92.01;96003.44;5052933;28;20124;-67
2023/01/10 00:31:45;;;;;;;68.90;23.40;;;;;;;3.95;91.90;95998.16;5052902;28;20070;-65
2023/01/10 00:34:14;;;;;;;71.32;26.42;;;;;;;3.98;91.26;96003.28;5052930;28;20072;-66
2023/01/10 00:36:44;;;;;;;67.95;26.48;;;;;;;4.02;91.29;96007.50;5052723;28;20056;-61
2023/01/10 00:39:12;;;;;;;74.72;28.20;;;;;;;4.02;90.73;96010.09;5052809;28;20056;-65
2023/01/10 00:44:26;;;;;;;69.00;28.88;;;;;;;4.07;90.39;95997.06;5052710;28;20468;-68
2023/01/10 00:46:53;;;;;;;76.15;29.95;;;;;;;4.11;89.83;95991.78;5052644;28;20048;-63
2023/01/10 00:49:23;;;;;;;73.85;28.42;;;;;;;4.12;89.28;95988.31;5052560;28;20491;-66
2023/01/10 00:51:50;;;;;;;73.53;29.77;;;;;;;4.18;89.05;95987.31;5052524;28;20049;-66
2023/01/10 00:54:17;;;;;;;76.70;31.30;;;;;;;4.18;88.94;95976.97;5052515;28;20502;-64
2023/01/10 00:56:44;;;;;;;68.05;30.42;;;;;;;4.21;88.72;95976.06;5052508;28;20080;-65
2023/01/10 00:59:11;;;;;;;79.35;30.83;;;;;;;4.22;88.40;95976.03;5052515;28;20045;-66
2023/01/10 01:01:38;;;;;;;70.75;30.08;;;;;;;4.17;88.35;95973.53;5052407;28;20054;-63
2023/01/10 01:04:05;;;;;;;88.63;31.48;;;;;;;4.12;88.22;95966.75;5052391;28;20105;-65
2023/01/10 01:06:34;;;;;;;75.07;31.02;;;;;;;4.10;88.51;95974.56;5052228;28;20056;-65
2023/01/10 01:09:01;;;;;;;82.93;33.17;;;;;;;4.09;88.54;95962.47;5052110;28;20041;-67
2023/01/10 01:11:28;;;;;;;80.57;33.00;;;;;;;4.09;88.50;95956.47;5052267;28;20380;-66
2023/01/10 01:13:55;;;;;;;79.68;33.55;;;;;;;4.06;88.64;95972.91;5052206;28;20097;-64
2023/01/10 01:16:22;;;;;;;85.57;33.22;;;;;;;4.07;88.35;95956.50;5051654;28;20090;-63
2023/01/10 01:18:50;;;;;;;92.00;33.78;;;;;;;4.07;88.64;95953.91;5052189;28;20049;-62
2023/01/10 01:21:20;;;;;;;91.10;34.58;;;;;;;4.12;88.76;95959.00;5052043;28;20132;-66
2023/01/10 01:23:49;;;;;;;82.97;32.05;;;;;;;4.15;88.64;95964.94;5052106;28;20049;-63
2023/01/10 01:26:16;;;;;;;81.67;31.23;;;;;;;4.15;88.40;95962.34;5051950;28;20140;-63
2023/01/10 01:28:43;;;;;;;63.53;29.13;;;;;;;4.14;88.36;95964.97;5052045;28;20049;-65
2023/01/10 01:31:11;;;;;;;77.63;29.77;;;;;;;4.10;88.46;95971.09;5052061;28;20467;-62
2023/01/10 01:33:38;;;;;;;82.68;32.58;;;;;;;4.12;88.52;95966.75;5051955;28;20514;-62
2023/01/10 01:36:09;;;;;;;82.50;32.53;;;;;;;4.07;88.57;95958.22;5051901;28;20049;-61
2023/01/10 01:38:37;;;;;;;76.15;31.27;;;;;;;4.06;88.86;95951.34;5051842;28;20057;-67
2023/01/10 01:41:55;;;;;;;94.38;32.22;;;;;;;4.10;88.71;95950.41;5051841;28;20056;-64
2023/01/10 01:44:01;;;;;;;81.78;30.77;;;;;;;4.06;88.76;95949.59;5051570;28;20049;-66
2023/01/10 01:46:28;;;;;;;83.60;32.28;;;;;;;4.11;88.81;95942.59;5051737;28;20477;-63
2023/01/10 01:48:56;;;;;;;98.50;32.85;;;;;;;4.11;88.69;95942.59;5051765;28;20045;-67
2023/01/10 01:51:27;;;;;;;83.50;32.38;;;;;;;4.11;88.71;95954.69;5051665;28;20049;-63
2023/01/10 01:54:01;;;;;;;80.50;32.83;;;;;;;4.08;88.95;95940.06;5051580;28;20506;-67
2023/01/10 01:56:33;;;;;;;83.40;31.80;;;;;;;4.10;88.80;95930.56;5051632;28;20041;-62
2023/01/10 01:59:03;;;;;;;84.13;31.15;;;;;;;4.11;89.07;95931.38;5051463;28;20041;-65
2023/01/10 02:01:31;;;;;;;70.93;30.20;;;;;;;4.10;88.78;95930.56;5051517;28;20049;-64
2023/01/10 02:04:07;;;;;;;80.13;31.50;;;;;;;4.09;89.32;95931.41;5051536;28;20041;-65
2023/01/10 02:06:34;;;;;;;77.63;31.70;;;;;;;4.12;89.45;95926.19;5051396;28;20406;-67
2023/01/10 02:09:09;;;;;;;83.15;32.55;;;;;;;4.13;89.37;95925.28;5051400;28;20125;-64
2023/01/10 02:11:38;;;;;;;66.38;30.38;;;;;;;4.14;89.24;95921.81;5051265;28;20506;-65
2023/01/10 02:14:07;;;;;;;81.07;33.50;;;;;;;4.08;89.30;95929.72;5051250;28;20101;-62
2023/01/10 02:16:34;;;;;;;85.30;33.15;;;;;;;4.09;89.51;95920.22;5051316;28;20080;-64
2023/01/10 02:19:01;;;;;;;91.55;36.45;;;;;;;4.08;89.45;95927.13;5051446;27;20075;-65
2023/01/10 02:21:59;;;;;;;96.20;35.47;;;;;;;4.02;89.74;95916.91;5051227;28;20128;-64
2023/01/10 02:24:51;;;;;;;102.65;33.30;;;;;;;4.01;89.63;95908.28;5048872;28;20049;-67
2023/01/10 02:27:23;;;;;;;98.78;33.25;;;;;;;4.07;89.90;95902.16;5050348;28;20044;-66
2023/01/10 02:30:33;;;;;;;82.63;32.67;;;;;;;4.13;89.60;95889.03;5051013;28;20078;-66
2023/01/10 02:33:10;;;;;;;87.80;33.95;;;;;;;4.15;89.05;95876.91;5055893;28;20535;-66
2023/01/10 02:36:12;;;;;;;85.53;33.95;;;;;;;4.12;89.22;95876.16;5050986;28;20048;-66
2023/01/10 02:38:56;;;;;;;76.45;30.92;;;;;;;4.20;89.30;95873.38;5052655;28;20048;-66
2023/01/10 02:41:29;;;;;;;76.20;31.20;;;;;;;4.23;89.60;95879.34;5050834;28;20049;-67
2023/01/10 02:44:02;;;;;;;70.03;29.88;;;;;;;4.24;90.21;95886.22;5050620;28;20053;-62
2023/01/10 02:46:31;;;;;;;83.90;30.40;;;;;;;4.14;90.81;95884.72;5050710;28;20056;-66
2023/01/10 02:48:59;;;;;;;72.50;30.55;;;;;;;4.20;91.23;95882.00;5050751;28;20049;-65
2023/01/10 02:51:28;;;;;;;82.35;31.95;;;;;;;4.26;91.22;95874.09;5050649;28;20546;-66
2023/01/10 02:54:01;;;;;;;76.80;30.02;;;;;;;4.31;91.06;95873.97;5050815;28;20045;-66
2023/01/10 02:57:15;;;;;;;76.60;30.45;;;;;;;4.36;91.02;95866.13;5050653;28;20041;-62
2023/01/10 02:59:59;;;;;;;85.65;30.20;;;;;;;4.28;90.80;95855.94;5059478;28;20432;-64
2023/01/10 03:02:57;;;;;;;78.43;29.05;;;;;;;4.23;91.31;95866.41;5050444;28;20549;-66
2023/01/10 03:05:39;;;;;;;69.93;28.33;;;;;;;4.25;91.45;95867.19;5050462;28;20048;-63
2023/01/10 03:08:18;;;;;;;71.80;29.08;;;;;;;4.26;91.43;95875.81;5050445;28;20081;-62
2023/01/10 03:10:50;;;;;;;84.90;31.30;;;;;;;4.20;91.24;95874.22;5050392;28;20436;-64
2023/01/10 03:13:22;;;;;;;79.15;31.88;;;;;;;4.17;91.31;95861.34;5050399;28;20105;-66
2023/01/10 03:15:50;;;;;;;74.25;29.88;;;;;;;4.25;91.54;95854.25;5050484;28;20056;-67
2023/01/10 03:18:23;;;;;;;72.28;27.45;;;;;;;4.15;91.38;95850.16;5050414;28;20049;-64
2023/01/10 03:20:55;;;;;;;85.13;30.70;;;;;;;4.11;91.75;95833.00;5050348;28;20479;-64
2023/01/10 03:23:24;;;;;;;73.97;29.73;;;;;;;4.03;92.23;95839.22;5050323;28;20475;-67
2023/01/10 03:25:55;;;;;;;90.30;31.83;;;;;;;3.95;92.48;95833.38;5050271;28;20056;-66
2023/01/10 03:28:28;;;;;;;81.18;30.02;;;;;;;3.92;93.46;95830.88;5050282;28;20270;-65
2023/01/10 03:31:00;;;;;;;90.10;30.60;;;;;;;3.88;93.85;95831.81;5050292;28;20379;-65
2023/01/10 03:33:29;;;;;;;82.55;32.78;;;;;;;3.91;94.24;95842.09;5050178;28;20139;-65
2023/01/10 03:36:09;;;;;;;82.15;31.60;;;;;;;3.92;94.51;95836.03;5050021;28;20055;-63
2023/01/10 03:38:43;;;;;;;87.90;32.55;;;;;;;3.97;94.19;95826.41;5049867;28;20085;-65
2023/01/10 03:41:15;;;;;;;87.97;31.73;;;;;;;4.00;94.38;95830.69;5049989;28;20490;-64
2023/01/10 03:46:37;;;;;;;86.68;32.70;;;;;;;4.15;93.89;95834.63;5049994;28;20056;-62
2023/01/10 03:49:06;;;;;;;89.60;32.53;;;;;;;4.17;93.41;95836.31;5049881;28;20128;-66
2023/01/10 03:51:37;;;;;;;89.40;33.67;;;;;;;4.26;93.57;95834.38;5049973;28;20551;-63
2023/01/10 03:54:05;;;;;;;88.72;31.45;;;;;;;4.30;93.08;95831.69;5049935;28;20092;-67
2023/01/10 03:56:43;;;;;;;90.63;37.58;;;;;;;4.28;93.11;95814.50;5049999;28;20044;-64
2023/01/10 03:59:10;;;;;;;98.78;37.40;;;;;;;4.35;92.35;95826.41;5049869;28;20045;-65
2023/01/10 04:01:37;;;;;;;92.72;36.58;;;;;;;4.41;91.97;95821.06;5049783;28;20076;-65
2023/01/10 04:04:04;;;;;;;94.78;36.20;;;;;;;4.42;91.13;95825.34;5049712;28;20128;-65
2023/01/10 04:06:32;;;;;;;95.90;35.90;;;;;;;4.39;91.18;95809.91;5049631;28;20075;-64
2023/01/10 04:09:00;;;;;;;93.40;36.47;;;;;;;4.47;91.20;95812.28;5049725;28;20098;-64
2023/01/10 04:11:27;;;;;;;84.57;36.03;;;;;;;4.51;90.34;95811.31;5049859;28;20076;-65
2023/01/10 04:13:55;;;;;;;98.18;34.95;;;;;;;4.52;89.70;95805.25;5049834;28;20487;-65
2023/01/10 04:16:22;;;;;;;102.70;36.25;;;;;;;4.51;89.67;95811.31;5049583;28;20460;-64
2023/01/10 04:18:49;;;;;;;97.78;34.42;;;;;;;4.52;89.66;95810.41;5049523;28;20067;-63
2023/01/10 04:21:16;;;;;;;93.05;35.72;;;;;;;4.49;89.65;95804.50;5049544;28;20226;-67
2023/01/10 04:23:44;;;;;;;85.90;34.63;;;;;;;4.53;89.36;95788.84;5049562;28;20053;-65
2023/01/10 04:26:13;;;;;;;91.00;34.00;;;;;;;4.57;89.13;95799.94;5049515;27;20041;-65
2023/01/10 04:28:40;;;;;;;95.13;35.60;;;;;;;4.57;89.06;95802.53;5049474;28;20052;-67
2023/01/10 04:31:07;;;;;;;99.97;38.70;;;;;;;4.64;88.85;95811.00;5049450;28;20048;-63
2023/01/10 04:33:34;;;;;;;85.07;35.85;;;;;;;4.61;88.88;95803.31;5049388;28;20045;-67
2023/01/10 04:36:02;;;;;;;94.03;35.20;;;;;;;4.62;89.25;95803.28;5049326;28;20112;-63
2023/01/10 04:38:29;;;;;;;97.15;35.33;;;;;;;4.62;88.87;95795.50;5049529;27;20052;-62
2023/01/10 04:40:57;;;;;;;93.28;36.00;;;;;;;4.59;88.77;95787.81;5049321;28;20041;-65
2023/01/10 04:43:26;;;;;;;88.00;36.40;;;;;;;4.63;88.73;95784.25;5049114;28;20076;-66
2023/01/10 04:45:53;;;;;;;92.13;34.53;;;;;;;4.62;88.64;95769.59;5049118;28;20053;-62
2023/01/10 04:48:21;;;;;;;92.75;34.60;;;;;;;4.64;88.87;95766.97;5049212;28;20049;-65
2023/01/10 04:50:51;;;;;;;100.25;35.42;;;;;;;4.69;88.40;95775.47;5049635;28;20053;-66
2023/01/10 04:53:22;;;;;;;91.38;35.25;;;;;;;4.73;88.26;95776.25;5052648;28;20091;-64
2023/01/10 04:55:49;;;;;;;82.68;34.67;;;;;;;4.68;88.48;95782.41;5052485;28;20055;-66
2023/01/10 04:58:17;;;;;;;79.35;32.78;;;;;;;4.66;89.01;95785.91;5052442;28;20432;-67
2023/01/10 05:00:45;;;;;;;73.53;31.58;;;;;;;4.75;90.62;95790.84;5052470;28;20076;-65
2023/01/10 05:03:12;;;;;;;75.15;31.15;;;;;;;4.71;92.64;95793.56;5052439;28;20129;-67
2023/01/10 05:05:40;;;;;;;69.30;31.90;;;;;;;4.73;93.67;95782.25;5052422;27;20056;-65
2023/01/10 05:08:08;;;;;;;69.65;30.85;;;;;;;4.72;94.49;95787.50;5052387;28;20136;-66
2023/01/10 05:10:35;;;;;;;66.03;29.83;;;;;;;4.74;94.64;95791.75;5052272;28;20049;-64
2023/01/10 05:13:03;;;;;;;72.07;30.23;;;;;;;4.83;94.94;95787.19;5052453;28;20479;-67
2023/01/10 05:15:30;;;;;;;92.15;34.97;;;;;;;4.87;94.54;95779.28;5052241;28;20395;-67
2023/01/10 05:18:02;;;;;;;80.07;33.90;;;;;;;4.92;94.62;95769.66;5052173;28;20060;-65
2023/01/10 05:20:29;;;;;;;72.35;29.05;;;;;;;5.00;94.43;95776.38;5052139;28;20105;-66
2023/01/10 05:22:56;;;;;;;72.55;31.58;;;;;;;5.07;93.97;95777.91;5052126;28;20053;-66
2023/01/10 05:25:23;;;;;;;68.78;29.60;;;;;;;5.08;93.81;95779.59;5052215;28;20071;-64
2023/01/10 05:27:50;;;;;;;65.55;30.60;;;;;;;5.09;93.65;95777.84;5051958;28;20090;-65
2023/01/10 05:30:18;;;;;;;64.60;30.85;;;;;;;5.17;93.79;95789.69;5051988;28;20110;-66
2023/01/10 05:32:45;;;;;;;78.55;33.10;;;;;;;5.22;93.06;95786.13;5052014;28;20085;-66
2023/01/10 05:35:16;;;;;;;84.03;33.30;;;;;;;5.14;91.68;95778.56;5051992;28;20049;-68
2023/01/10 05:37:44;;;;;;;89.35;35.10;;;;;;;5.14;91.27;95770.78;5051888;28;20044;-63
2023/01/10 05:40:12;;;;;;;71.47;33.67;;;;;;;5.13;91.07;95777.72;5051871;28;20124;-67
2023/01/10 05:42:39;;;;;;;72.88;35.97;;;;;;;5.10;90.95;95757.06;5051620;28;20049;-64
2023/01/10 05:45:09;;;;;;;75.60;37.97;;;;;;;5.13;91.76;95754.38;5051782;28;20049;-63
2023/01/10 05:47:36;;;;;;;65.18;29.52;;;;;;;5.14;93.42;95763.84;5051804;28;20049;-64
2023/01/10 05:50:04;;;;;;;76.40;34.55;;;;;;;5.25;94.68;95766.16;5051830;28;20056;-66
2023/01/10 05:52:33;;;;;;;83.82;35.30;;;;;;;5.33;95.75;95770.25;5051737;28;20045;-63
2023/01/10 05:55:00;;;;;;;68.97;32.85;;;;;;;5.57;98.81;95766.09;5051788;27;20402;-63
2023/01/10 05:57:27;;;;;;;65.75;32.63;;;;;;;5.78;100.00;95774.09;5051586;28;20531;-65
2023/01/10 05:59:54;;;;;;;63.63;32.58;;;;;;;5.96;100.00;95769.22;5051500;28;20448;-67
2023/01/10 06:02:21;;;;;;;66.57;32.83;;;;;;;6.11;100.00;95763.56;5051548;28;20040;-64
2023/01/10 06:04:50;;;;;;;54.20;31.00;;;;;;;6.30;100.00;95768.16;5051413;28;20049;-66
2023/01/10 06:07:18;;;;;;;58.45;30.52;;;;;;;6.37;100.00;95758.41;5051322;28;20064;-63
2023/01/10 06:09:47;;;;;;;55.13;30.83;;;;;;;6.41;100.00;95758.25;5051427;28;20056;-67
2023/01/10 06:12:14;;;;;;;50.65;27.48;;;;;;;6.55;100.00;95752.59;5051404;28;20041;-65
2023/01/10 06:14:41;;;;;;;69.97;30.88;;;;;;;6.63;100.00;95741.94;5051314;28;20056;-65
2023/01/10 06:17:09;;;;;;;58.97;30.77;;;;;;;6.63;100.00;95744.53;5051359;28;20559;-66
2023/01/10 06:19:38;;;;;;;58.78;32.35;;;;;;;6.61;100.00;95748.91;5051216;28;20080;-66
2023/01/10 06:22:05;;;;;;;59.83;32.42;;;;;;;6.69;100.00;95749.47;5051237;28;20045;-66
2023/01/10 06:24:32;;;;;;;58.53;32.75;;;;;;;6.74;100.00;95757.13;5051143;28;20479;-65
2023/01/10 06:27:01;;;;;;;61.80;33.88;;;;;;;6.79;100.00;95767.38;5051085;28;20136;-67
2023/01/10 06:29:29;;;;;;;57.53;30.85;;;;;;;6.81;100.00;95750.81;5051049;28;20090;-65
2023/01/10 06:31:56;;;;;;;66.43;35.50;;;;;;;6.85;100.00;95763.69;5051074;28;20056;-66
2023/01/10 06:34:23;;;;;;;74.95;35.95;;;;;;;6.80;100.00;95769.06;5050933;28;20056;-65
2023/01/10 06:36:50;;;;;;;58.38;33.72;;;;;;;6.81;100.00;95758.59;5050988;28;20053;-64
2023/01/10 06:39:18;;;;;;;71.03;35.88;;;;;;;6.85;100.00;95763.69;5050857;28;20102;-67
2023/01/10 06:41:45;;;;;;;80.43;36.60;;;;;;;6.91;100.00;95769.53;5050700;28;20045;-64
2023/01/10 06:44:14;;;;;;;68.07;36.05;;;;;;;6.90;100.00;95765.25;5050917;28;20056;-66
2023/01/10 06:46:41;;;;;;;74.88;37.13;;;;;;;6.96;100.00;95753.78;5050791;28;20056;-65
2023/01/10 06:49:09;;;;;;;76.50;38.95;;;;;;;6.90;100.00;95760.06;5050971;28;20041;-64
2023/01/10 06:51:36;;;;;;;79.50;39.97;;;;;;;6.86;100.00;95742.00;5050782;28;20044;-65
2023/01/10 06:54:03;;;;;;;77.82;38.35;;;;;;;6.87;100.00;95747.16;5050748;28;20044;-65
2023/01/10 06:56:30;;;;;;;88.40;39.40;;;;;;;6.85;100.00;95761.09;5050700;28;20451;-62
2023/01/10 06:58:57;;;;;;;75.45;41.13;;;;;;;6.92;100.00;95755.63;5050759;28;20053;-64
2023/01/10 07:01:26;;;;;;;76.18;39.08;;;;;;;6.96;100.00;95743.38;5050617;28;20041;-62
2023/01/10 07:03:54;;;;;;;72.20;37.47;;;;;;;7.04;100.00;95741.34;5050606;28;20128;-63
2023/01/10 07:06:21;;;;;;;72.15;37.17;;;;;;;7.11;100.00;95741.97;5050498;28;20049;-65
2023/01/10 07:08:49;;;;;;;59.42;35.55;;;;;;;7.16;100.00;95744.38;5050333;28;20067;-65
2023/01/10 07:11:19;;;;;;;59.75;34.15;;;;;;;7.20;100.00;95739.00;5050433;28;20109;-65
2023/01/10 07:13:46;;;;;;;58.45;33.75;;;;;;;7.17;100.00;95736.50;5050143;28;20533;-66
2023/01/10 07:16:15;;;;;;;55.45;32.97;;;;;;;7.17;100.00;95743.50;5050439;28;20171;-65
2023/01/10 07:18:43;;;;;;;65.55;34.58;;;;;;;7.14;100.00;95734.06;5050416;28;20513;-66
2023/01/10 07:21:11;;;;;;;56.63;31.95;;;;;;;7.13;100.00;95732.34;5050191;28;20045;-64
2023/01/10 07:23:39;;;;;;;67.68;33.67;;;;;;;7.20;100.00;95730.38;5050337;28;20045;-63
2023/01/10 07:26:09;;;;;;;50.67;31.75;;;;;;;7.19;100.00;95736.47;5050375;28;20094;-65
2023/01/10 07:28:36;;;;;;;53.20;29.35;;;;;;;7.26;100.00;95737.94;5050151;28;20056;-66
2023/01/10 07:31:05;;;;;;;42.22;26.08;;;;;;;7.27;100.00;95726.63;5050218;28;20045;-66
2023/01/10 07:33:32;;;;;;;48.00;28.65;;;;;;;7.28;100.00;95740.47;5050104;28;20456;-65
2023/01/10 07:36:02;;;;;;;48.50;29.85;;;;;;;7.30;100.00;95723.91;5050053;28;20057;-64
2023/01/10 07:38:30;;;;;;;48.90;27.80;;;;;;;7.26;100.00;95726.69;5050092;28;20087;-68
2023/01/10 07:40:57;;;;;;;52.33;29.63;;;;;;;7.28;100.00;95736.13;5050006;28;20041;-63
2023/01/10 07:43:24;;;;;;;45.17;28.83;;;;;;;7.25;100.00;95725.81;5049785;28;20398;-65
2023/01/10 07:45:52;;;;;;;44.38;28.73;;;;;;;7.33;100.00;95722.94;5049854;28;20044;-67
2023/01/10 07:48:20;;;;;;;40.17;26.80;;;;;;;7.33;100.00;95720.34;5049941;28;20049;-63
2023/01/10 07:50:47;;;;;;;43.15;27.52;;;;;;;7.32;100.00;95722.09;5049970;28;20045;-68
2023/01/10 07:53:16;;;;;;;42.38;29.67;;;;;;;7.36;100.00;95707.22;5049872;28;20045;-64
2023/01/10 07:55:44;;;;;;;44.65;27.65;;;;;;;7.37;100.00;95708.06;5049736;28;20045;-63
2023/01/10 07:58:12;;;;;;;42.58;26.30;;;;;;;7.39;100.00;95708.84;5049818;28;20041;-63
2023/01/10 08:00:39;;;;;;;39.58;27.42;;;;;;;7.36;100.00;95702.00;5049726;28;20102;-66
2023/01/10 08:03:06;;;;;;;37.15;25.40;;;;;;;7.42;100.00;95709.59;5049779;28;20045;-64
2023/01/10 08:05:34;;;;;;;44.63;26.50;;;;;;;7.42;100.00;95709.59;5049842;28;20045;-63
2023/01/10 08:08:05;;;;;;;46.47;27.25;;;;;;;7.42;100.00;95695.72;5049606;28;20056;-67
2023/01/10 08:10:34;;;;;;;39.78;29.20;;;;;;;7.39;100.00;95694.09;5049668;28;20097;-64
2023/01/10 08:13:01;;;;;;;45.92;31.45;;;;;;;7.38;100.00;95701.97;5049653;28;20044;-65
2023/01/10 08:15:29;;;;;;;55.40;34.00;;;;;;;7.39;100.00;95691.50;5049592;28;20059;-66
2023/01/10 08:17:59;;;;;;;63.08;34.03;;;;;;;7.40;100.00;95676.69;5049587;28;20049;-64
2023/01/10 08:20:27;;;;;;;53.90;34.70;;;;;;;7.40;100.00;95674.09;5049597;28;20105;-66
2023/01/10 08:22:54;;;;;;;61.10;37.42;;;;;;;7.41;100.00;95681.03;5049528;28;20053;-64
2023/01/10 08:25:21;;;;;;;58.33;35.65;;;;;;;7.43;100.00;95680.06;5049569;28;20101;-62
2023/01/10 08:27:50;;;;;;;57.00;37.33;;;;;;;7.44;100.00;95671.31;5052853;28;20139;-64
2023/01/10 08:30:18;;;;;;;57.50;36.97;;;;;;;7.47;100.00;95670.38;5052998;28;20451;-65
2023/01/10 08:32:45;;;;;;;61.67;37.00;;;;;;;7.50;100.00;95672.00;5052845;28;20045;-68
2023/01/10 08:35:12;;;;;;;55.00;36.17;;;;;;;7.42;100.00;95654.94;5052913;28;20061;-66
2023/01/10 08:37:40;;;;;;;57.75;35.00;;;;;;;7.45;100.00;95664.38;5052905;28;20444;-67
2023/01/10 08:40:09;;;;;;;56.35;36.67;;;;;;;7.38;100.00;95686.34;5052826;28;20124;-65
2023/01/10 08:42:39;;;;;;;59.13;37.97;;;;;;;7.38;100.00;95674.19;5051445;28;20076;-64
2023/01/10 08:45:09;;;;;;;;;;;;;;;7.33;100.00;95653.56;5053205;28;20414;-67
2023/01/10 08:47:36;;;;;;;43.00;29.90;;;;;;;7.32;100.00;95654.44;5052657;28;20422;-68
2023/01/10 08:50:03;;;;;;;52.28;34.50;;;;;;;7.35;100.00;95658.69;5052629;28;20076;-63
2023/01/10 08:52:31;;;;;;;48.28;33.22;;;;;;;7.36;100.00;95646.53;5052610;28;20398;-67
2023/01/10 08:54:59;;;;;;;53.58;33.67;;;;;;;7.36;100.00;95644.78;5052694;28;20539;-65
2023/01/10 08:57:26;;;;;;;50.17;32.67;;;;;;;7.36;100.00;95667.31;5052621;28;20053;-66
2023/01/10 08:59:54;;;;;;;50.85;33.25;;;;;;;7.39;100.00;95657.66;5052636;28;20125;-63
2023/01/10 09:02:22;;;;;;;47.72;29.23;;;;;;;7.37;100.00;95632.63;5052495;28;20098;-64
2023/01/10 09:04:49;;;;;;;45.58;29.60;;;;;;;7.41;100.00;95637.63;5052460;28;20493;-62
2023/01/10 09:07:16;;;;;;;46.28;30.88;;;;;;;7.40;100.00;95628.13;5052341;28;20072;-68
2023/01/10 09:09:44;;;;;;;44.72;28.75;;;;;;;7.46;100.00;95622.69;5052287;28;20045;-65
2023/01/10 09:14:52;;;;;;;52.33;33.67;;;;;;;7.45;100.00;95605.38;5052181;28;20048;-65
2023/01/10 09:17:19;;;;;;;54.30;32.95;;;;;;;7.40;100.00;95601.25;5052238;28;20041;-66
2023/01/10 09:19:49;;;;;;;46.60;30.67;;;;;;;7.44;100.00;95592.44;5052183;28;20101;-62
2023/01/10 09:22:16;;;;;;;46.47;30.85;;;;;;;7.43;100.00;95585.50;5052166;28;20131;-66
2023/01/10 09:24:43;;;;;;;41.15;29.35;;;;;;;7.46;100.00;95590.59;5052183;28;20125;-65
2023/01/10 09:27:11;;;;;;;39.50;26.75;;;;;;;7.49;100.00;95597.44;5052068;28;20120;-65
2023/01/10 09:29:38;;;;;;;41.83;27.58;;;;;;;7.52;100.00;95566.06;5052057;28;20417;-61
2023/01/10 09:32:06;;;;;;;39.10;25.63;;;;;;;7.58;100.00;95539.78;5051994;28;20045;-65
2023/01/10 09:34:33;;;;;;;34.55;22.80;;;;;;;7.56;100.00;95559.84;5051952;28;20049;-64
2023/01/10 09:37:02;;;;;;;35.55;22.60;;;;;;;7.53;100.00;95547.78;5051556;28;20053;-65
2023/01/10 09:39:31;;;;;;;35.15;23.45;;;;;;;7.52;100.00;95538.31;5051951;28;20131;-65
2023/01/10 09:42:27;;;;;;;35.13;23.67;;;;;;;7.50;100.00;95544.50;5051811;28;20044;-64
2023/01/10 09:45:04;;;;;;;41.55;25.30;;;;;;;7.49;100.00;95520.22;5051825;28;20482;-62
2023/01/10 09:47:42;;;;;;;40.70;24.02;;;;;;;7.50;100.00;95513.25;5051790;28;20402;-69
2023/01/10 09:50:19;;;;;;;35.53;23.23;;;;;;;7.49;100.00;95541.03;5051719;28;20472;-68
2023/01/10 09:52:53;;;;;;;38.50;25.85;;;;;;;7.46;100.00;95508.19;5051667;28;20045;-67
2023/01/10 09:55:27;;;;;;;38.28;26.70;;;;;;;7.50;100.00;95488.09;5051574;28;20045;-65
2023/01/10 09:57:56;;;;;;;41.97;26.02;;;;;;;7.52;100.00;95501.00;5051473;28;20053;-65
2023/01/10 10:00:33;;;;;;;35.55;22.77;;;;;;;7.54;100.00;95507.00;5051551;28;20049;-64
2023/01/10 10:03:01;;;;;;;30.30;20.90;;;;;;;7.52;100.00;95491.47;5051680;28;20049;-65
2023/01/10 10:05:28;;;;;;;32.33;21.27;;;;;;;7.52;100.00;95485.41;5051556;28;20097;-66
2023/01/10 10:07:58;;;;;;;33.55;23.30;;;;;;;7.50;100.00;95477.69;5051325;28;20105;-66
2023/01/10 10:10:27;;;;;;;29.58;21.02;;;;;;;7.47;100.00;95467.41;5051450;28;20124;-66
2023/01/10 10:13:02;;;;;;;30.50;21.80;;;;;;;7.49;100.00;95469.94;5051402;28;20067;-68
2023/01/10 10:15:36;;;;;;;28.10;20.00;;;;;;;7.48;99.11;95460.41;5051325;28;20049;-67
2023/01/10 10:18:13;;;;;;;30.70;22.13;;;;;;;7.46;99.38;95466.56;5051274;28;20041;-65
2023/01/10 10:20:54;;;;;;;32.25;22.35;;;;;;;7.45;99.11;95458.81;5051232;28;20098;-65
2023/01/10 10:23:27;;;;;;;;;;;;;;;7.44;98.46;95470.13;5051767;28;20136;-63
2023/01/10 10:26:02;;;;;;;31.42;23.17;;;;;;;7.41;99.61;95465.88;5051144;28;20378;-67
2023/01/10 10:29:02;;;;;;;39.15;25.98;;;;;;;7.44;99.34;95457.94;5051061;28;20052;-66
2023/01/10 10:31:52;;;;;;;39.33;22.92;;;;;;;7.51;98.27;95455.94;5050972;28;20083;-64
2023/01/10 10:34:25;;;;;;;38.42;24.30;;;;;;;7.55;98.26;95452.28;5051072;28;20057;-65
2023/01/10 10:36:56;;;;;;;34.42;22.80;;;;;;;7.55;98.50;95454.91;5051017;28;20048;-64
2023/01/10 10:39:37;;;;;;;35.78;24.75;;;;;;;7.51;97.95;95457.69;5050975;28;20455;-68
2023/01/10 10:42:11;;;;;;;38.67;25.73;;;;;;;7.51;98.29;95439.47;5050746;28;20044;-66
2023/01/10 10:44:44;;;;;;;29.23;19.75;;;;;;;7.56;97.41;95438.34;5050830;28;20041;-63
2023/01/10 10:47:15;;;;;;;36.03;21.92;;;;;;;7.53;98.11;95417.66;5050898;28;20053;-68
2023/01/10 10:49:47;;;;;;;27.13;18.95;;;;;;;7.54;98.02;95414.19;5049871;28;20052;-63
2023/01/10 10:52:22;;;;;;;28.25;18.05;;;;;;;7.52;98.43;95416.00;5050898;28;20080;-64
2023/01/10 10:54:52;;;;;;;22.90;15.95;;;;;;;7.49;98.30;95395.31;5050673;28;20053;-64
2023/01/10 10:57:24;;;;;;;28.23;19.58;;;;;;;7.51;98.51;95382.22;5050754;28;20045;-65
2023/01/10 10:59:52;;;;;;;22.77;17.25;;;;;;;7.54;99.16;95367.34;5050708;28;20078;-67
2023/01/10 11:02:29;;;;;;;24.40;18.08;;;;;;;7.56;99.72;95343.84;5050687;28;20041;-66
2023/01/10 11:04:59;;;;;;;21.98;16.13;;;;;;;7.57;100.00;95371.56;5050701;28;20045;-63
2023/01/10 11:07:31;;;;;;;24.25;17.48;;;;;;;7.55;100.00;95368.16;5050552;28;20052;-65
2023/01/10 11:10:13;;;;;;;27.27;17.50;;;;;;;7.59;100.00;95357.53;5050577;28;20082;-65
2023/01/10 11:12:46;;;;;;;23.48;16.48;;;;;;;7.61;100.00;95341.88;5050438;28;20044;-63
2023/01/10 11:15:36;;;;;;;27.52;18.60;;;;;;;7.62;100.00;95361.78;5050388;28;20072;-67
2023/01/10 11:18:06;;;;;;;30.90;19.40;;;;;;;7.71;100.00;95395.19;5050416;28;20047;-63
2023/01/10 11:20:34;;;;;;;34.53;20.55;;;;;;;7.73;100.00;95402.94;5050306;28;20131;-65
2023/01/10 11:23:02;;;;;;;30.27;20.73;;;;;;;7.77;100.00;95356.78;5050209;28;20045;-63
2023/01/10 11:25:30;;;;;;;23.83;19.77;;;;;;;7.78;100.00;95353.28;5050312;28;20128;-66
2023/01/10 11:28:01;;;;;;;28.75;20.98;;;;;;;7.73;100.00;95361.28;5050193;28;20080;-62
2023/01/10 11:30:31;;;;;;;27.92;20.52;;;;;;;7.74;100.00;95328.28;5050357;28;20049;-68
2023/01/10 11:33:01;;;;;;;30.83;20.00;;;;;;;7.81;100.00;95321.88;5050197;28;20049;-64
2023/01/10 11:35:32;;;;;;;25.40;19.80;;;;;;;7.76;100.00;95301.28;5050231;28;20497;-67
2023/01/10 11:38:01;;;;;;;25.13;18.90;;;;;;;7.79;100.00;95303.75;5050059;28;20078;-66
2023/01/10 11:40:31;;;;;;;24.25;18.05;;;;;;;7.77;100.00;95305.56;5050162;28;20048;-66
2023/01/10 11:43:00;;;;;;;23.02;17.77;;;;;;;7.78;99.91;95291.66;5049712;28;20429;-67
2023/01/10 11:45:32;;;;;;;30.42;18.83;;;;;;;7.77;99.34;95300.34;5049986;28;20159;-65
2023/01/10 11:48:07;;;;;;;30.98;22.33;;;;;;;7.73;99.38;95322.25;5049969;28;20122;-66